createdAt,value
2018-10-17T00:01:32.672Z,8.03
2018-10-17T00:04:02.096Z,7.30
2018-10-17T00:06:31.483Z,8.33
2018-10-17T00:09:00.903Z,9.43
2018-10-17T00:11:30.346Z,8.23
2018-10-17T00:13:59.609Z,7.83
2018-10-17T00:16:29.191Z,8.17
2018-10-17T00:18:58.460Z,7.93
2018-10-17T00:21:27.579Z,8.23
2018-10-17T00:23:56.823Z,8.00
2018-10-17T00:26:25.979Z,7.60
2018-10-17T00:28:55.806Z,7.43
2018-10-17T00:31:24.936Z,7.47
2018-10-17T00:33:54.060Z,9.30
2018-10-17T00:36:23.515Z,8.03
2018-10-17T00:38:52.914Z,9.57
2018-10-17T00:41:21.995Z,10.63
2018-10-17T00:43:51.515Z,8.40
2018-10-17T00:46:20.547Z,7.67
2018-10-17T00:48:49.843Z,10.30
2018-10-17T00:51:19.408Z,8.50
2018-10-17T00:53:48.330Z,7.37
2018-10-17T00:56:17.484Z,7.33
2018-10-17T00:58:58.045Z,7.80
2018-10-17T01:01:27.163Z,7.53
2018-10-17T01:03:56.291Z,7.47
2018-10-17T01:06:25.409Z,7.57
2018-10-17T01:08:54.723Z,7.33
2018-10-17T01:11:23.906Z,7.20
2018-10-17T01:13:53.271Z,7.37
2018-10-17T01:16:22.641Z,7.77
2018-10-17T01:18:51.930Z,6.63
2018-10-17T01:21:21.119Z,6.93
2018-10-17T01:23:50.216Z,7.33
2018-10-17T01:26:19.691Z,6.93
2018-10-17T01:28:48.763Z,7.87
2018-10-17T01:31:17.768Z,7.30
2018-10-17T01:33:46.664Z,7.50
2018-10-17T01:36:15.796Z,8.40
2018-10-17T01:38:45.299Z,7.03
2018-10-17T01:41:14.806Z,8.73
2018-10-17T01:43:44.071Z,7.63
2018-10-17T01:46:13.232Z,8.07
2018-10-17T01:48:42.191Z,7.80
2018-10-17T01:51:11.443Z,7.37
2018-10-17T01:53:40.824Z,7.90
2018-10-17T01:56:09.787Z,8.00
2018-10-17T01:58:38.882Z,8.97
2018-10-17T02:01:08.314Z,7.97
2018-10-17T02:03:37.399Z,8.43
2018-10-17T02:06:07.001Z,8.67
2018-10-17T02:08:36.079Z,7.67
2018-10-17T02:11:05.219Z,8.67
2018-10-17T02:13:34.510Z,8.23
2018-10-17T02:16:03.763Z,9.23
2018-10-17T02:18:33.224Z,7.97
2018-10-17T02:21:02.512Z,8.27
2018-10-17T02:23:31.523Z,9.10
2018-10-17T02:26:00.515Z,8.87
2018-10-17T02:28:29.999Z,8.83
2018-10-17T02:30:59.173Z,8.70
2018-10-17T02:33:28.286Z,8.87
2018-10-17T02:35:57.404Z,9.00
2018-10-17T02:38:26.330Z,9.20
2018-10-17T02:40:55.634Z,8.93
2018-10-17T02:43:24.700Z,9.00
2018-10-17T02:45:53.647Z,10.10
2018-10-17T02:48:22.584Z,9.83
2018-10-17T02:50:51.989Z,9.30
2018-10-17T02:53:21.024Z,9.90
2018-10-17T02:55:50.225Z,9.90
2018-10-17T02:58:19.501Z,10.83
2018-10-17T03:00:48.528Z,9.77
2018-10-17T03:03:17.520Z,9.93
2018-10-17T03:05:46.781Z,10.07
2018-10-17T03:08:15.972Z,10.80
2018-10-17T03:10:45.480Z,9.87
2018-10-17T03:13:14.849Z,10.10
2018-10-17T03:15:43.840Z,12.00
2018-10-17T03:18:12.900Z,11.03
2018-10-17T03:20:42.056Z,11.53
2018-10-17T03:23:11.364Z,12.77
2018-10-17T03:25:40.389Z,11.93
2018-10-17T03:28:09.481Z,11.73
2018-10-17T03:30:38.601Z,12.13
2018-10-17T03:33:07.661Z,11.87
2018-10-17T03:35:36.901Z,11.47
2018-10-17T03:38:06.182Z,12.60
2018-10-17T03:40:35.285Z,12.57
2018-10-17T03:43:04.389Z,12.63
2018-10-17T03:45:33.591Z,13.60
2018-10-17T03:48:02.556Z,13.40
2018-10-17T03:50:31.558Z,13.40
2018-10-17T03:53:00.519Z,14.33
2018-10-17T03:55:29.656Z,14.23
2018-10-17T03:57:58.736Z,14.40
2018-10-17T04:00:27.876Z,14.97
2018-10-17T04:02:57.237Z,14.93
2018-10-17T04:05:26.115Z,15.23
2018-10-17T04:07:55.082Z,14.97
2018-10-17T04:10:24.100Z,15.83
2018-10-17T04:12:53.364Z,16.17
2018-10-17T04:15:22.359Z,16.27
2018-10-17T04:17:51.724Z,16.47
2018-10-17T04:20:20.745Z,16.60
2018-10-17T04:22:54.653Z,17.53
2018-10-17T04:25:23.747Z,17.23
2018-10-17T04:27:54.424Z,17.30
2018-10-17T04:30:23.603Z,17.40
2018-10-17T04:32:52.615Z,19.33
2018-10-17T04:35:21.651Z,17.03
2018-10-17T04:37:50.826Z,16.80
2018-10-17T04:40:20.026Z,17.23
2018-10-17T04:42:49.585Z,18.93
2018-10-17T04:45:18.600Z,19.47
2018-10-17T04:47:47.852Z,17.73
2018-10-17T04:50:16.923Z,18.27
2018-10-17T04:52:46.272Z,18.43
2018-10-17T04:55:15.425Z,18.27
2018-10-17T04:57:44.507Z,19.73
2018-10-17T05:00:13.956Z,20.43
2018-10-17T05:02:43.724Z,18.87
2018-10-17T05:05:13.390Z,19.63
2018-10-17T05:07:42.260Z,18.83
2018-10-17T05:10:11.333Z,19.63
2018-10-17T05:12:40.212Z,19.63
2018-10-17T05:15:09.932Z,19.87
2018-10-17T05:17:39.788Z,19.97
2018-10-17T05:20:08.964Z,18.63
2018-10-17T05:22:38.240Z,20.97
2018-10-17T05:25:08.209Z,20.00
2018-10-17T05:27:37.203Z,21.03
2018-10-17T05:30:06.749Z,20.93
2018-10-17T05:32:36.259Z,21.90
2018-10-17T05:35:05.682Z,20.03
2018-10-17T05:37:35.842Z,21.83
2018-10-17T05:40:05.284Z,21.47
2018-10-17T05:42:34.489Z,21.47
2018-10-17T05:45:03.684Z,22.47
2018-10-17T05:47:32.748Z,21.97
2018-10-17T05:50:02.110Z,22.20
2018-10-17T05:52:31.321Z,20.60
2018-10-17T05:55:00.433Z,22.20
2018-10-17T05:57:30.540Z,24.27
2018-10-17T05:59:59.556Z,21.70
2018-10-17T06:02:32.259Z,22.07
2018-10-17T06:05:01.513Z,21.97
2018-10-17T06:07:30.712Z,23.07
2018-10-17T06:09:59.868Z,23.83
2018-10-17T06:12:29.000Z,24.77
2018-10-17T06:14:58.113Z,23.80
2018-10-17T06:17:27.043Z,22.37
2018-10-17T06:19:55.975Z,24.17
2018-10-17T06:22:24.944Z,23.00
2018-10-17T06:24:54.051Z,23.33
2018-10-17T06:27:23.105Z,23.77
2018-10-17T06:29:52.410Z,24.37
2018-10-17T06:32:21.717Z,24.53
2018-10-17T06:34:51.093Z,23.83
2018-10-17T06:37:20.114Z,23.43
2018-10-17T06:39:49.535Z,25.53
2018-10-17T06:42:18.565Z,23.90
2018-10-17T06:44:47.552Z,23.93
2018-10-17T06:47:16.645Z,23.67
2018-10-17T06:49:45.540Z,24.63
2018-10-17T06:52:15.163Z,25.63
2018-10-17T06:54:44.119Z,24.50
2018-10-17T06:57:13.472Z,23.57
2018-10-17T06:59:42.336Z,23.50
2018-10-17T07:02:11.348Z,23.13
2018-10-17T07:04:40.332Z,23.20
2018-10-17T07:07:09.473Z,24.40
2018-10-17T07:09:38.264Z,25.67
2018-10-17T07:12:07.362Z,25.73
2018-10-17T07:14:36.391Z,25.00
2018-10-17T07:17:05.987Z,25.00
2018-10-17T07:19:35.017Z,24.33
2018-10-17T07:22:04.012Z,24.90
2018-10-17T07:24:33.186Z,25.30
2018-10-17T07:27:02.513Z,24.67
2018-10-17T07:29:31.782Z,25.07
2018-10-17T07:32:00.927Z,25.53
2018-10-17T07:34:30.197Z,24.90
2018-10-17T07:36:59.244Z,24.53
2018-10-17T07:39:28.188Z,25.70
2018-10-17T07:41:57.416Z,24.93
2018-10-17T07:44:26.551Z,24.93
2018-10-17T07:46:55.800Z,24.97
2018-10-17T07:49:24.975Z,25.10
2018-10-17T07:51:54.258Z,25.50
2018-10-17T07:54:23.254Z,24.77
2018-10-17T07:56:52.654Z,24.63
2018-10-17T07:59:21.842Z,25.43
2018-10-17T08:01:51.215Z,26.57
2018-10-17T08:04:20.211Z,24.83
2018-10-17T08:06:49.232Z,25.17
2018-10-17T08:09:18.305Z,24.80
2018-10-17T08:11:47.504Z,24.53
2018-10-17T08:14:16.578Z,24.23
2018-10-17T08:16:45.725Z,25.37
2018-10-17T08:19:14.841Z,24.50
2018-10-17T08:21:43.826Z,25.03
2018-10-17T08:24:12.874Z,24.87
2018-10-17T08:26:42.384Z,25.77
2018-10-17T08:29:11.628Z,24.73
2018-10-17T08:31:40.748Z,26.13
2018-10-17T08:34:11.065Z,24.37
2018-10-17T08:36:40.217Z,24.43
2018-10-17T08:39:10.184Z,24.87
2018-10-17T08:41:39.421Z,26.10
2018-10-17T08:44:08.556Z,27.40
2018-10-17T08:46:37.676Z,26.13
2018-10-17T08:49:06.684Z,26.40
2018-10-17T08:51:35.636Z,24.57
2018-10-17T08:54:04.995Z,24.97
2018-10-17T08:56:34.368Z,25.93
2018-10-17T08:59:03.239Z,24.93
2018-10-17T09:01:32.547Z,24.13
2018-10-17T09:04:02.820Z,25.33
2018-10-17T09:06:32.093Z,25.70
2018-10-17T09:09:01.158Z,25.17
2018-10-17T09:11:30.090Z,23.90
2018-10-17T09:13:59.379Z,27.20
2018-10-17T09:16:28.518Z,25.63
2018-10-17T09:18:58.300Z,26.00
2018-10-17T09:21:27.678Z,25.33
2018-10-17T09:23:56.845Z,25.83
2018-10-17T09:26:26.304Z,25.97
2018-10-17T09:28:55.268Z,26.20
2018-10-17T09:31:24.184Z,26.57
2018-10-17T09:33:53.447Z,25.50
2018-10-17T09:36:22.894Z,23.27
2018-10-17T09:38:52.094Z,24.30
2018-10-17T09:41:21.196Z,22.43
2018-10-17T09:43:50.364Z,25.27
2018-10-17T09:46:19.657Z,23.47
2018-10-17T09:48:48.747Z,25.40
2018-10-17T09:51:18.044Z,23.30
2018-10-17T09:53:46.924Z,24.17
2018-10-17T09:56:16.128Z,26.13
2018-10-17T09:58:45.224Z,21.67
2018-10-17T10:01:20.679Z,27.83
2018-10-17T10:03:49.684Z,24.83
2018-10-17T10:06:19.092Z,26.73
2018-10-17T10:08:48.212Z,25.20
2018-10-17T10:11:17.413Z,24.90
2018-10-17T10:13:46.576Z,27.90
2018-10-17T10:16:15.848Z,29.70
2018-10-17T10:18:45.256Z,29.97
2018-10-17T10:21:14.284Z,26.63
2018-10-17T10:23:43.396Z,22.87
2018-10-17T10:26:12.575Z,23.13
2018-10-17T10:28:41.645Z,23.77
2018-10-17T10:31:11.233Z,23.40
2018-10-17T10:33:40.844Z,22.13
2018-10-17T10:36:09.901Z,22.30
2018-10-17T10:38:38.988Z,21.43
2018-10-17T10:41:08.615Z,20.50
2018-10-17T10:43:37.701Z,20.47
2018-10-17T10:46:07.248Z,17.17
2018-10-17T10:48:36.581Z,18.50
2018-10-17T10:51:06.083Z,19.30
2018-10-17T10:53:35.263Z,17.97
2018-10-17T10:56:05.053Z,18.07
2018-10-17T10:58:34.083Z,16.20
2018-10-17T11:01:03.122Z,15.87
2018-10-17T11:03:32.095Z,17.67
2018-10-17T11:06:01.268Z,15.50
2018-10-17T11:08:30.508Z,14.23
2018-10-17T11:10:59.955Z,15.90
2018-10-17T11:13:29.740Z,16.07
2018-10-17T11:15:58.964Z,14.27
2018-10-17T11:18:27.807Z,16.07
2018-10-17T11:20:57.275Z,14.13
2018-10-17T11:23:26.541Z,15.53
2018-10-17T11:25:56.071Z,13.83
2018-10-17T11:28:24.974Z,13.10
2018-10-17T11:30:54.038Z,14.47
2018-10-17T11:33:23.089Z,13.87
2018-10-17T11:35:52.259Z,14.10
2018-10-17T11:38:21.324Z,14.27
2018-10-17T11:40:50.413Z,14.87
2018-10-17T11:43:20.570Z,14.37
2018-10-17T11:45:49.516Z,14.73
2018-10-17T11:48:18.884Z,15.17
2018-10-17T11:50:47.911Z,13.93
2018-10-17T11:53:17.295Z,13.73
2018-10-17T11:55:46.222Z,14.30
2018-10-17T11:58:15.784Z,15.17
2018-10-17T12:00:44.843Z,14.47
2018-10-17T12:03:14.207Z,14.43
2018-10-17T12:05:43.421Z,15.67
2018-10-17T12:08:12.611Z,13.87
2018-10-17T12:10:41.570Z,13.83
2018-10-17T12:13:10.685Z,15.60
2018-10-17T12:15:42.618Z,18.40
2018-10-17T12:18:11.913Z,14.57
2018-10-17T12:20:41.044Z,15.23
2018-10-17T12:23:10.078Z,15.53
2018-10-17T12:25:38.989Z,14.60
2018-10-17T12:28:08.123Z,15.03
2018-10-17T12:30:37.352Z,15.77
2018-10-17T12:33:06.927Z,16.07
2018-10-17T12:35:36.241Z,16.10
2018-10-17T12:38:05.567Z,15.77
2018-10-17T12:40:34.873Z,16.67
2018-10-17T12:43:04.133Z,15.97
2018-10-17T12:45:33.276Z,17.27
2018-10-17T12:48:03.360Z,16.47
2018-10-17T12:50:32.335Z,16.97
2018-10-17T12:53:02.132Z,17.77
2018-10-17T12:55:30.977Z,15.10
2018-10-17T12:58:00.460Z,16.33
2018-10-17T13:00:29.687Z,15.93
2018-10-17T13:02:58.796Z,15.20
2018-10-17T13:05:28.034Z,14.70
2018-10-17T13:07:57.215Z,16.20
2018-10-17T13:10:26.189Z,15.30
2018-10-17T13:12:55.508Z,15.27
2018-10-17T13:15:25.088Z,16.93
2018-10-17T13:17:53.968Z,15.97
2018-10-17T13:20:23.124Z,15.87
2018-10-17T13:22:52.602Z,16.67
2018-10-17T13:25:21.784Z,17.90
2018-10-17T13:27:51.183Z,16.67
2018-10-17T13:30:20.400Z,15.87
2018-10-17T13:32:49.944Z,16.30
2018-10-17T13:35:19.380Z,14.90
2018-10-17T13:37:48.203Z,16.73
2018-10-17T13:40:17.088Z,15.47
2018-10-17T13:42:46.196Z,16.80
2018-10-17T13:45:15.496Z,15.83
2018-10-17T13:47:44.434Z,15.67
2018-10-17T13:50:13.816Z,14.97
2018-10-17T13:52:43.148Z,15.77
2018-10-17T13:55:12.253Z,16.20
2018-10-17T13:57:41.286Z,15.63
2018-10-17T14:00:12.602Z,15.57
2018-10-17T14:02:42.577Z,15.10
2018-10-17T14:05:11.900Z,15.43
2018-10-17T14:07:40.992Z,15.97
2018-10-17T14:10:10.316Z,15.10
2018-10-17T14:12:39.351Z,14.77
2018-10-17T14:15:08.636Z,17.10
2018-10-17T14:17:37.642Z,14.70
2018-10-17T14:20:06.765Z,15.13
2018-10-17T14:22:35.964Z,14.67
2018-10-17T14:25:05.583Z,14.70
2018-10-17T14:27:34.827Z,14.27
2018-10-17T14:30:04.137Z,15.00
2018-10-17T14:32:33.998Z,14.60
2018-10-17T14:35:03.292Z,15.17
2018-10-17T14:37:32.735Z,14.47
2018-10-17T14:40:01.911Z,14.33
2018-10-17T14:42:31.024Z,14.33
2018-10-17T14:45:00.284Z,15.27
2018-10-17T14:47:29.556Z,14.70
2018-10-17T14:49:58.643Z,14.37
2018-10-17T14:52:27.884Z,14.33
2018-10-17T14:54:57.116Z,14.40
2018-10-17T14:57:26.152Z,14.20
2018-10-17T14:59:55.339Z,14.87
2018-10-17T15:02:24.324Z,14.13
2018-10-17T15:04:53.311Z,14.40
2018-10-17T15:07:22.580Z,13.90
2018-10-17T15:09:51.730Z,14.53
2018-10-17T15:12:20.902Z,14.17
2018-10-17T15:14:49.969Z,14.97
2018-10-17T15:17:19.163Z,14.53
2018-10-17T15:19:48.512Z,15.07
2018-10-17T15:22:17.575Z,14.17
2018-10-17T15:24:46.547Z,14.97
2018-10-17T15:27:15.897Z,14.47
2018-10-17T15:29:44.937Z,13.00
2018-10-17T15:32:14.143Z,14.13
2018-10-17T15:34:43.321Z,13.87
2018-10-17T15:37:12.863Z,14.67
2018-10-17T15:39:42.121Z,14.50
2018-10-17T15:42:11.959Z,14.23
2018-10-17T15:44:41.628Z,13.33
2018-10-17T15:47:10.605Z,14.10
2018-10-17T15:49:40.024Z,13.87
2018-10-17T15:52:09.339Z,14.43
2018-10-17T15:54:38.608Z,14.00
2018-10-17T15:57:07.885Z,15.50
2018-10-17T15:59:37.028Z,16.00
2018-10-17T16:02:06.512Z,15.90
2018-10-17T16:04:35.458Z,15.73
2018-10-17T16:07:04.824Z,15.00
2018-10-17T16:09:35.046Z,15.33
2018-10-17T16:12:04.410Z,15.63
2018-10-17T16:14:33.464Z,15.60
2018-10-17T16:17:02.495Z,16.00
2018-10-17T16:19:31.428Z,15.50
2018-10-17T16:22:00.508Z,15.70
2018-10-17T16:24:29.672Z,17.07
2018-10-17T16:26:58.836Z,17.33
2018-10-17T16:29:27.900Z,16.60
2018-10-17T16:31:57.132Z,17.07
2018-10-17T16:34:26.138Z,15.80
2018-10-17T16:36:55.323Z,15.67
2018-10-17T16:39:24.460Z,16.57
2018-10-17T16:41:53.657Z,16.73
2018-10-17T16:44:22.980Z,16.37
2018-10-17T16:46:51.915Z,17.80
2018-10-17T16:49:21.123Z,16.93
2018-10-17T16:51:50.352Z,15.93
2018-10-17T16:54:19.729Z,18.73
2018-10-17T16:56:49.239Z,17.63
2018-10-17T16:59:18.741Z,17.50
2018-10-17T17:01:47.961Z,19.60
2018-10-17T17:04:17.081Z,18.40
2018-10-17T17:06:46.037Z,16.33
2018-10-17T17:09:15.259Z,18.07
2018-10-17T17:11:44.296Z,18.67
2018-10-17T17:14:13.332Z,17.33
2018-10-17T17:16:42.568Z,18.50
2018-10-17T17:19:11.639Z,18.23
2018-10-17T17:21:40.757Z,18.90
2018-10-17T17:24:10.029Z,17.47
2018-10-17T17:26:39.408Z,18.53
2018-10-17T17:29:08.607Z,19.07
2018-10-17T17:31:37.568Z,19.47
2018-10-17T17:34:06.834Z,18.80
2018-10-17T17:36:35.988Z,22.13
2018-10-17T17:39:06.839Z,18.93
2018-10-17T17:41:36.009Z,19.90
2018-10-17T17:44:05.467Z,22.90
2018-10-17T17:46:34.726Z,20.20
2018-10-17T17:49:04.487Z,20.40
2018-10-17T17:51:33.425Z,20.63
2018-10-17T17:54:02.520Z,20.27
2018-10-17T17:56:31.558Z,20.50
2018-10-17T17:59:00.884Z,20.17
2018-10-17T18:01:30.204Z,21.53
2018-10-17T18:03:59.713Z,22.57
2018-10-17T18:06:28.940Z,21.23
2018-10-17T18:08:57.897Z,21.97
2018-10-17T18:13:18.611Z,20.90
2018-10-17T18:15:48.300Z,20.83
2018-10-17T18:18:18.344Z,22.50
2018-10-17T18:20:48.563Z,21.47
2018-10-17T18:23:18.567Z,20.60
2018-10-17T18:25:48.353Z,22.77
2018-10-17T18:28:18.298Z,22.73
2018-10-17T18:30:47.914Z,22.33
2018-10-17T18:33:17.543Z,22.70
2018-10-17T18:35:47.230Z,21.33
2018-10-17T18:38:17.084Z,23.63
2018-10-17T18:40:47.552Z,23.83
2018-10-17T18:43:17.213Z,23.73
2018-10-17T18:45:46.899Z,23.50
2018-10-17T18:48:16.530Z,23.53
2018-10-17T18:50:46.140Z,22.70
2018-10-17T18:53:15.949Z,24.10
2018-10-17T18:55:45.783Z,23.60
2018-10-17T18:58:15.726Z,23.40
2018-10-17T19:00:45.394Z,24.63
2018-10-17T19:03:15.437Z,23.30
2018-10-17T19:05:44.968Z,23.73
2018-10-17T19:08:14.841Z,22.47
2018-10-17T19:10:44.413Z,24.60
2018-10-17T19:13:14.044Z,24.27
2018-10-17T19:15:43.934Z,24.03
2018-10-17T19:18:13.830Z,24.00
2018-10-17T19:20:43.510Z,23.50
2018-10-17T19:23:12.953Z,22.70
2018-10-17T19:25:42.667Z,22.63
2018-10-17T19:28:13.253Z,23.20
2018-10-17T19:30:42.740Z,22.70
2018-10-17T19:33:12.875Z,23.23
2018-10-17T19:35:43.078Z,25.37
2018-10-17T19:38:12.734Z,22.77
2018-10-17T19:40:42.488Z,22.10
2018-10-17T19:43:12.291Z,23.00
2018-10-17T19:45:41.871Z,21.27
2018-10-17T19:48:11.873Z,21.83
2018-10-17T19:50:41.594Z,21.60
2018-10-17T19:53:11.444Z,20.20
2018-10-17T19:55:40.980Z,20.07
2018-10-17T19:58:10.969Z,20.73
2018-10-17T20:00:40.798Z,20.70
2018-10-17T20:03:10.530Z,21.47
2018-10-17T20:05:40.358Z,21.27
2018-10-17T20:08:11.292Z,20.37
2018-10-17T20:10:40.879Z,19.57
2018-10-17T20:13:10.537Z,19.43
2018-10-17T20:15:40.257Z,19.87
2018-10-17T20:18:10.312Z,20.37
2018-10-17T20:20:39.940Z,18.83
2018-10-17T20:23:09.685Z,18.23
2018-10-17T20:25:39.520Z,17.53
2018-10-17T20:28:09.297Z,18.90
2018-10-17T20:30:39.292Z,18.97
2018-10-17T20:33:08.895Z,18.33
2018-10-17T20:35:38.428Z,18.67
2018-10-17T20:38:08.359Z,19.23
2018-10-17T20:40:38.713Z,18.93
2018-10-17T20:43:09.457Z,18.60
2018-10-17T20:45:39.559Z,17.77
2018-10-17T20:48:09.560Z,17.17
2018-10-17T20:50:39.320Z,17.87
2018-10-17T20:53:09.020Z,17.63
2018-10-17T20:55:38.896Z,17.27
2018-10-17T20:58:08.579Z,17.27
2018-10-17T21:00:38.232Z,18.90
2018-10-17T21:03:07.837Z,17.47
2018-10-17T21:05:37.547Z,17.33
2018-10-17T21:08:07.408Z,18.10
2018-10-17T21:10:37.323Z,16.67
2018-10-17T21:13:07.055Z,16.83
2018-10-17T21:15:36.820Z,17.57
2018-10-17T21:18:06.777Z,17.17
2018-10-17T21:20:37.097Z,17.10
2018-10-17T21:23:07.803Z,16.90
2018-10-17T21:25:37.352Z,16.83
2018-10-17T21:28:07.617Z,15.47
2018-10-17T21:30:37.417Z,15.57
2018-10-17T21:33:07.324Z,16.70
2018-10-17T21:35:37.270Z,16.10
2018-10-17T21:38:07.480Z,17.13
2018-10-17T21:40:37.724Z,15.43
2018-10-17T21:43:07.515Z,17.27
2018-10-17T21:45:37.137Z,15.73
2018-10-17T21:48:07.163Z,15.80
2018-10-17T21:50:36.800Z,15.73
2018-10-17T21:53:06.668Z,16.40
2018-10-17T21:55:36.463Z,15.73
2018-10-17T21:58:06.516Z,16.10
2018-10-17T22:00:36.603Z,14.77
2018-10-17T22:03:06.779Z,16.07
2018-10-17T22:05:36.585Z,16.10
2018-10-17T22:08:06.510Z,16.23
2018-10-17T22:10:36.508Z,15.97
2018-10-17T22:13:07.120Z,15.47
2018-10-17T22:15:37.157Z,15.57
2018-10-17T22:18:07.540Z,16.20
2018-10-17T22:20:38.195Z,15.90
2018-10-17T22:23:07.933Z,16.20
2018-10-17T22:25:37.511Z,15.47
2018-10-17T22:28:07.243Z,16.43
2018-10-17T22:30:37.208Z,16.43
2018-10-17T22:33:06.990Z,16.13
2018-10-17T22:35:36.508Z,14.80
2018-10-17T22:38:07.672Z,15.47
2018-10-17T22:40:37.389Z,15.33
2018-10-17T22:43:07.779Z,15.33
2018-10-17T22:45:37.456Z,15.37
2018-10-17T22:48:07.668Z,15.27
2018-10-17T22:50:37.816Z,16.30
2018-10-17T22:53:07.744Z,15.83
2018-10-17T22:55:37.365Z,15.30
2018-10-17T22:58:07.575Z,15.67
2018-10-17T23:00:37.244Z,15.33
2018-10-17T23:03:06.812Z,15.93
2018-10-17T23:05:36.607Z,14.60
2018-10-17T23:08:06.472Z,15.20
2018-10-17T23:10:36.012Z,17.13
2018-10-17T23:13:05.854Z,15.20
2018-10-17T23:15:35.836Z,15.30
2018-10-17T23:18:06.987Z,16.50
2018-10-17T23:20:36.641Z,16.13
2018-10-17T23:23:06.502Z,16.43
2018-10-17T23:25:36.210Z,16.30
2018-10-17T23:28:06.368Z,15.97
2018-10-17T23:30:36.572Z,15.33
2018-10-17T23:33:06.162Z,16.43
2018-10-17T23:35:35.827Z,16.17
2018-10-17T23:38:05.436Z,15.93
2018-10-17T23:40:35.181Z,15.77
2018-10-17T23:43:05.680Z,17.37
2018-10-17T23:45:35.320Z,17.20
2018-10-17T23:48:06.120Z,16.87
2018-10-17T23:50:36.174Z,17.73
2018-10-17T23:53:06.077Z,16.73
2018-10-17T23:55:35.708Z,16.93
2018-10-17T23:58:05.744Z,18.37
